createdAt,value
2022-12-08T00:01:09.826Z,21.58
2022-12-08T00:03:40.819Z,21.46
2022-12-08T00:06:39.859Z,21.43
2022-12-08T00:09:29.998Z,21.46
2022-12-08T00:12:09.402Z,21.34
2022-12-08T00:14:44.710Z,21.37
2022-12-08T00:17:16.953Z,21.49
2022-12-08T00:19:47.244Z,21.26
2022-12-08T00:22:17.888Z,21.21
2022-12-08T00:24:47.618Z,21.24
2022-12-08T00:27:20.398Z,21.15
2022-12-08T00:29:51.122Z,21.05
2022-12-08T00:32:21.131Z,20.95
2022-12-08T00:34:51.809Z,20.99
2022-12-08T00:37:24.461Z,20.95
2022-12-08T00:39:55.162Z,20.88
2022-12-08T00:42:25.109Z,20.94
2022-12-08T00:45:05.305Z,20.88
2022-12-08T00:47:35.281Z,20.81
2022-12-08T00:50:06.749Z,20.85
2022-12-08T00:52:37.016Z,20.80
2022-12-08T00:55:08.212Z,20.66
2022-12-08T00:57:38.212Z,20.56
2022-12-08T01:00:09.502Z,20.55
2022-12-08T01:02:39.530Z,20.45
2022-12-08T01:05:10.525Z,20.35
2022-12-08T01:07:40.811Z,20.21
2022-12-08T01:10:11.778Z,20.22
2022-12-08T01:12:44.282Z,20.31
2022-12-08T01:15:14.795Z,20.25
2022-12-08T01:17:44.891Z,20.24
2022-12-08T01:20:15.777Z,20.02
2022-12-08T01:22:45.392Z,20.05
2022-12-08T01:25:15.119Z,20.22
2022-12-08T01:27:45.534Z,20.14
2022-12-08T01:30:16.018Z,20.14
2022-12-08T01:32:46.526Z,20.21
2022-12-08T01:35:16.613Z,20.22
2022-12-08T01:37:46.480Z,20.10
2022-12-08T01:40:16.873Z,20.10
2022-12-08T01:42:46.871Z,20.09
2022-12-08T01:45:27.263Z,20.05
2022-12-08T01:48:02.090Z,19.93
2022-12-08T01:50:33.180Z,19.93
2022-12-08T01:53:13.690Z,19.97
2022-12-08T01:55:48.270Z,19.96
2022-12-08T01:58:31.798Z,19.89
2022-12-08T02:01:02.308Z,19.85
2022-12-08T02:04:06.175Z,19.88
2022-12-08T02:06:42.648Z,19.77
2022-12-08T02:09:13.337Z,19.80
2022-12-08T02:11:43.862Z,19.81
2022-12-08T02:14:15.466Z,19.80
2022-12-08T02:16:51.804Z,19.77
2022-12-08T02:19:46.409Z,19.74
2022-12-08T02:22:51.786Z,19.58
2022-12-08T02:25:33.345Z,19.18
2022-12-08T02:28:23.286Z,19.07
2022-12-08T02:31:10.908Z,19.01
2022-12-08T02:34:17.329Z,19.03
2022-12-08T02:37:14.658Z,19.06
2022-12-08T02:40:03.060Z,19.09
2022-12-08T02:42:37.702Z,19.05
2022-12-08T02:45:16.453Z,18.92
2022-12-08T02:47:47.253Z,19.14
2022-12-08T02:50:17.695Z,19.06
2022-12-08T02:52:49.992Z,19.09
2022-12-08T02:55:22.731Z,19.17
2022-12-08T02:58:11.990Z,19.20
2022-12-08T03:01:02.796Z,19.21
2022-12-08T03:04:06.062Z,19.23
2022-12-08T03:06:54.971Z,19.42
2022-12-08T03:09:43.216Z,19.48
2022-12-08T03:12:20.433Z,19.24
2022-12-08T03:15:20.904Z,19.07
2022-12-08T03:17:56.660Z,19.18
2022-12-08T03:20:29.303Z,19.16
2022-12-08T03:23:02.119Z,19.06
2022-12-08T03:25:37.796Z,19.04
2022-12-08T03:28:08.299Z,19.18
2022-12-08T03:30:45.015Z,19.23
2022-12-08T03:33:28.118Z,19.27
2022-12-08T03:36:01.169Z,19.08
2022-12-08T03:38:43.437Z,19.07
2022-12-08T03:41:19.926Z,19.12
2022-12-08T03:43:57.113Z,19.05
2022-12-08T03:48:57.841Z,19.34
2022-12-08T03:51:28.542Z,19.34
2022-12-08T03:53:58.012Z,19.39
2022-12-08T03:56:33.263Z,19.37
2022-12-08T03:59:04.188Z,19.36
2022-12-08T04:01:34.768Z,19.47
2022-12-08T04:04:05.405Z,19.54
2022-12-08T04:06:35.398Z,19.71
2022-12-08T04:09:05.542Z,19.67
2022-12-08T04:11:35.240Z,19.61
2022-12-08T04:14:05.388Z,19.45
2022-12-08T04:16:35.867Z,18.91
2022-12-08T04:19:05.951Z,19.22
2022-12-08T04:21:39.343Z,18.97
2022-12-08T04:24:09.589Z,18.84
2022-12-08T04:26:39.946Z,18.70
2022-12-08T04:29:09.944Z,18.83
2022-12-08T04:31:39.938Z,18.63
2022-12-08T04:34:10.837Z,18.63
2022-12-08T04:36:41.311Z,18.42
2022-12-08T04:39:11.355Z,18.41
2022-12-08T04:41:41.174Z,18.54
2022-12-08T04:44:10.930Z,18.51
2022-12-08T04:46:43.567Z,18.44
2022-12-08T04:49:14.367Z,18.30
2022-12-08T04:51:44.439Z,18.34
2022-12-08T04:54:14.249Z,18.52
2022-12-08T04:56:44.065Z,18.34
2022-12-08T04:59:13.987Z,18.42
2022-12-08T05:01:44.462Z,18.31
2022-12-08T05:04:14.614Z,18.47
2022-12-08T05:06:44.377Z,18.54
2022-12-08T05:09:15.048Z,18.63
2022-12-08T05:11:48.754Z,18.71
2022-12-08T05:14:20.678Z,18.79
2022-12-08T05:16:50.856Z,18.84
2022-12-08T05:19:21.251Z,18.79
2022-12-08T05:21:51.957Z,18.80
2022-12-08T05:24:22.061Z,18.65
2022-12-08T05:26:52.479Z,18.77
2022-12-08T05:29:22.278Z,18.83
2022-12-08T05:31:52.297Z,18.88
2022-12-08T05:34:22.245Z,18.77
2022-12-08T05:36:52.336Z,18.68
2022-12-08T05:39:23.248Z,18.59
2022-12-08T05:41:53.504Z,18.08
2022-12-08T05:44:23.867Z,18.22
2022-12-08T05:46:53.950Z,18.36
2022-12-08T05:49:23.884Z,18.45
2022-12-08T05:51:54.490Z,18.67
2022-12-08T05:54:25.140Z,18.64
2022-12-08T05:56:55.189Z,18.90
2022-12-08T05:59:25.730Z,18.91
2022-12-08T06:01:55.877Z,19.38
2022-12-08T06:04:26.424Z,19.53
2022-12-08T06:06:56.881Z,19.63
2022-12-08T06:09:27.490Z,19.70
2022-12-08T06:11:57.529Z,19.92
2022-12-08T06:14:27.504Z,20.00
2022-12-08T06:16:58.192Z,19.56
2022-12-08T06:19:27.808Z,19.19
2022-12-08T06:21:58.198Z,19.52
2022-12-08T06:24:28.246Z,19.56
2022-12-08T06:26:59.617Z,19.28
2022-12-08T06:29:29.095Z,19.54
2022-12-08T06:31:58.872Z,19.58
2022-12-08T06:34:29.505Z,19.72
2022-12-08T06:36:59.506Z,19.77
2022-12-08T06:39:29.337Z,19.97
2022-12-08T06:42:18.050Z,20.03
2022-12-08T06:44:48.421Z,19.99
2022-12-08T06:47:22.123Z,20.09
2022-12-08T06:49:56.125Z,20.13
2022-12-08T06:52:26.882Z,20.06
2022-12-08T06:54:56.902Z,20.15
2022-12-08T06:57:27.681Z,20.24
2022-12-08T06:59:57.727Z,19.52
2022-12-08T07:02:28.506Z,19.30
2022-12-08T07:04:58.577Z,19.27
2022-12-08T07:07:28.385Z,19.28
2022-12-08T07:10:01.232Z,19.50
2022-12-08T07:12:31.391Z,19.29
2022-12-08T07:15:01.855Z,19.38
2022-12-08T07:17:31.868Z,19.04
2022-12-08T07:20:02.132Z,18.97
2022-12-08T07:22:32.322Z,18.94
2022-12-08T07:25:02.365Z,18.95
2022-12-08T07:27:32.042Z,18.90
2022-12-08T07:30:02.473Z,18.75
2022-12-08T07:32:33.078Z,18.53
2022-12-08T07:35:03.125Z,18.63
2022-12-08T07:37:35.782Z,18.64
2022-12-08T07:40:08.014Z,18.50
2022-12-08T07:42:38.879Z,19.04
2022-12-08T07:45:09.573Z,18.67
2022-12-08T07:47:40.105Z,19.00
2022-12-08T07:50:10.569Z,19.39
2022-12-08T07:52:51.438Z,18.79
2022-12-08T07:55:22.106Z,18.96
2022-12-08T07:57:52.482Z,18.85
2022-12-08T08:00:22.682Z,18.94
2022-12-08T08:02:53.290Z,18.87
2022-12-08T08:05:24.666Z,18.60
2022-12-08T08:07:55.204Z,18.58
2022-12-08T08:10:25.249Z,18.54
2022-12-08T08:12:55.222Z,18.68
2022-12-08T08:15:24.995Z,18.53
2022-12-08T08:17:55.342Z,18.48
2022-12-08T08:20:25.926Z,18.56
2022-12-08T08:22:56.474Z,18.73
2022-12-08T08:25:26.271Z,18.83
2022-12-08T08:27:57.154Z,18.71
2022-12-08T08:30:27.233Z,18.87
2022-12-08T08:32:57.765Z,18.53
2022-12-08T08:35:27.979Z,18.49
2022-12-08T08:38:00.954Z,18.45
2022-12-08T08:40:31.003Z,18.58
2022-12-08T08:43:05.255Z,18.38
2022-12-08T08:45:36.603Z,18.85
2022-12-08T08:48:07.270Z,18.71
2022-12-08T08:50:37.826Z,18.49
2022-12-08T08:53:08.438Z,18.77
2022-12-08T08:55:41.292Z,18.54
2022-12-08T08:58:11.807Z,18.44
2022-12-08T09:00:42.220Z,18.39
2022-12-08T09:03:13.843Z,18.40
2022-12-08T09:05:44.217Z,18.50
2022-12-08T09:08:14.849Z,18.42
2022-12-08T09:10:45.035Z,18.71
2022-12-08T09:13:15.619Z,18.83
2022-12-08T09:15:48.527Z,18.97
2022-12-08T09:18:19.089Z,18.84
2022-12-08T09:20:49.249Z,19.08
2022-12-08T09:23:19.788Z,19.29
2022-12-08T09:25:49.915Z,19.42
2022-12-08T09:28:20.378Z,19.52
2022-12-08T09:30:55.353Z,19.44
2022-12-08T09:33:25.856Z,20.13
2022-12-08T09:35:55.957Z,19.72
2022-12-08T09:38:26.411Z,20.45
2022-12-08T09:40:56.910Z,20.28
2022-12-08T09:43:48.350Z,19.93
2022-12-08T09:46:18.672Z,19.91
2022-12-08T09:48:58.475Z,20.44
2022-12-08T09:51:40.011Z,21.13
2022-12-08T09:54:22.208Z,21.65
2022-12-08T09:56:57.063Z,21.95
2022-12-08T09:59:33.101Z,22.16
2022-12-08T10:02:04.954Z,22.60
2022-12-08T10:04:40.577Z,22.62
2022-12-08T10:07:28.290Z,22.72
2022-12-08T10:10:09.446Z,22.85
2022-12-08T10:12:53.383Z,22.86
2022-12-08T10:15:45.206Z,22.94
2022-12-08T10:18:21.488Z,23.24
2022-12-08T10:20:53.466Z,23.42
2022-12-08T10:23:41.517Z,23.81
2022-12-08T10:26:19.346Z,24.50
2022-12-08T10:28:49.776Z,24.34
2022-12-08T10:31:25.449Z,24.80
2022-12-08T10:34:10.912Z,25.40
2022-12-08T10:37:00.420Z,25.01
2022-12-08T10:39:40.170Z,25.09
2022-12-08T10:42:19.263Z,25.09
2022-12-08T10:45:05.118Z,25.07
2022-12-08T10:47:42.513Z,25.20
2022-12-08T10:50:49.792Z,25.92
2022-12-08T10:53:26.871Z,26.55
2022-12-08T10:56:05.948Z,26.40
2022-12-08T10:58:42.528Z,26.05
2022-12-08T11:01:15.469Z,26.54
2022-12-08T11:03:55.806Z,26.48
2022-12-08T11:06:36.566Z,26.69
2022-12-08T11:09:50.616Z,26.80
2022-12-08T11:12:23.037Z,26.68
2022-12-08T11:15:02.539Z,26.64
2022-12-08T11:17:42.900Z,26.73
2022-12-08T11:20:13.286Z,26.59
2022-12-08T11:22:55.784Z,27.05
2022-12-08T11:25:29.668Z,27.00
2022-12-08T11:31:37.940Z,28.34
2022-12-08T11:34:11.482Z,29.26
2022-12-08T11:36:42.034Z,29.47
2022-12-08T11:39:14.074Z,29.88
2022-12-08T11:41:47.146Z,30.78
2022-12-08T11:44:39.461Z,31.42
2022-12-08T11:47:18.701Z,31.73
2022-12-08T11:49:57.792Z,32.38
2022-12-08T11:52:36.711Z,32.79
2022-12-08T11:55:25.169Z,33.28
2022-12-08T11:57:58.680Z,34.00
2022-12-08T12:00:28.756Z,34.50
2022-12-08T12:03:10.381Z,34.75
2022-12-08T12:06:53.364Z,35.11
2022-12-08T12:09:24.240Z,35.63
2022-12-08T12:12:27.613Z,35.74
2022-12-08T12:15:13.867Z,35.01
2022-12-08T12:17:43.908Z,35.94
2022-12-08T12:20:32.082Z,36.13
2022-12-08T12:23:07.954Z,35.42
2022-12-08T12:25:42.286Z,36.21
2022-12-08T12:28:14.846Z,36.04
2022-12-08T12:31:00.989Z,36.24
2022-12-08T12:33:32.994Z,36.26
2022-12-08T12:36:11.599Z,36.73
2022-12-08T12:39:04.423Z,37.18
2022-12-08T12:41:59.912Z,37.12
2022-12-08T12:44:29.837Z,37.80
2022-12-08T12:47:03.589Z,36.90
2022-12-08T12:49:44.925Z,37.88
2022-12-08T12:52:19.264Z,37.42
2022-12-08T12:54:52.283Z,37.77
2022-12-08T12:57:26.046Z,38.00
2022-12-08T12:59:56.279Z,37.47
2022-12-08T13:02:31.913Z,37.59
2022-12-08T13:05:11.446Z,37.77
2022-12-08T13:08:27.695Z,38.44
2022-12-08T13:11:10.924Z,38.40
2022-12-08T13:14:01.371Z,38.78
2022-12-08T13:16:38.923Z,38.45
2022-12-08T13:19:19.370Z,38.09
2022-12-08T13:21:49.389Z,38.12
2022-12-08T13:24:39.785Z,39.23
2022-12-08T13:27:09.705Z,39.58
2022-12-08T13:29:41.196Z,39.05
2022-12-08T13:32:11.126Z,38.32
2022-12-08T13:34:55.181Z,39.05
2022-12-08T13:37:53.993Z,39.46
2022-12-08T13:40:31.214Z,39.39
2022-12-08T13:43:19.264Z,38.82
2022-12-08T13:55:20.032Z,38.83
2022-12-08T13:57:37.677Z,38.68
2022-12-08T14:00:16.191Z,39.33
2022-12-08T14:02:51.410Z,39.71
2022-12-08T14:05:47.485Z,39.18
2022-12-08T14:08:57.781Z,39.00
2022-12-08T14:11:36.577Z,39.17
2022-12-08T14:14:14.452Z,40.42
2022-12-08T14:16:56.520Z,41.23
2022-12-08T14:19:29.500Z,41.44
2022-12-08T14:22:14.200Z,41.31
2022-12-08T14:24:49.526Z,39.69
2022-12-08T14:27:34.613Z,39.57
2022-12-08T14:30:29.546Z,40.51
2022-12-08T14:33:04.643Z,39.66
2022-12-08T14:35:39.564Z,40.33
2022-12-08T14:38:18.739Z,40.07
2022-12-08T14:41:10.526Z,38.71
2022-12-08T14:43:42.021Z,39.50
2022-12-08T14:46:23.896Z,40.07
2022-12-08T14:48:55.782Z,40.90
2022-12-08T14:51:32.445Z,40.99
2022-12-08T14:54:09.577Z,41.89
2022-12-08T14:56:42.992Z,41.98
2022-12-08T14:59:33.843Z,40.76
2022-12-08T15:02:26.318Z,40.70
2022-12-08T15:05:07.341Z,41.49
2022-12-08T15:07:55.991Z,41.99
2022-12-08T15:10:32.102Z,42.38
2022-12-08T15:13:08.552Z,43.52
2022-12-08T15:15:54.076Z,43.82
2022-12-08T15:18:41.826Z,43.10
2022-12-08T15:21:14.084Z,43.85
2022-12-08T15:23:53.186Z,42.71
2022-12-08T15:26:25.880Z,43.45
2022-12-08T15:28:57.145Z,43.67
2022-12-08T15:31:27.254Z,43.76
2022-12-08T15:33:57.643Z,42.83
2022-12-08T15:36:28.025Z,42.60
2022-12-08T15:38:58.460Z,43.33
2022-12-08T15:41:28.477Z,43.97
2022-12-08T15:43:59.310Z,44.19
2022-12-08T15:46:29.399Z,44.45
2022-12-08T15:48:59.926Z,43.63
2022-12-08T15:51:32.073Z,44.38
2022-12-08T15:54:02.425Z,44.95
2022-12-08T15:56:34.215Z,44.36
2022-12-08T15:59:04.747Z,44.31
2022-12-08T16:01:34.771Z,43.55
2022-12-08T16:05:06.328Z,42.02
2022-12-08T16:09:46.702Z,41.55
2022-12-08T16:16:00.692Z,43.84
2022-12-08T16:18:37.345Z,43.59
2022-12-08T16:21:17.026Z,41.91
2022-12-08T16:23:57.919Z,41.43
2022-12-08T16:27:28.490Z,41.36
2022-12-08T16:29:22.182Z,42.01
2022-12-08T16:31:53.025Z,40.83
2022-12-08T16:34:23.005Z,41.84
2022-12-08T16:36:54.230Z,42.82
2022-12-08T16:39:24.268Z,44.05
2022-12-08T16:42:12.936Z,44.01
2022-12-08T16:44:43.635Z,43.45
2022-12-08T16:47:14.153Z,44.48
2022-12-08T16:49:44.416Z,45.34
2022-12-08T16:52:14.794Z,45.50
2022-12-08T16:54:44.933Z,45.31
2022-12-08T16:57:15.462Z,44.81
2022-12-08T16:59:45.495Z,45.37
2022-12-08T17:02:16.685Z,44.14
2022-12-08T17:04:46.781Z,45.65
2022-12-08T17:07:17.458Z,45.64
2022-12-08T17:09:47.524Z,46.09
2022-12-08T17:12:18.120Z,46.52
2022-12-08T17:14:48.231Z,46.78
2022-12-08T17:17:21.706Z,46.92
2022-12-08T17:19:51.703Z,47.20
2022-12-08T17:22:22.076Z,46.54
2022-12-08T17:24:52.129Z,45.91
2022-12-08T17:27:22.670Z,45.64
2022-12-08T17:29:52.628Z,44.26
2022-12-08T17:32:25.337Z,44.48
2022-12-08T17:34:55.379Z,43.34
2022-12-08T17:37:25.744Z,43.43
2022-12-08T17:40:01.500Z,42.58
2022-12-08T17:42:31.816Z,43.23
2022-12-08T17:45:01.879Z,43.22
2022-12-08T17:47:32.557Z,43.79
2022-12-08T17:50:03.161Z,43.80
2022-12-08T17:52:34.241Z,43.18
2022-12-08T17:55:05.195Z,43.15
2022-12-08T17:57:35.639Z,43.01
2022-12-08T18:00:06.557Z,42.01
2022-12-08T18:02:41.584Z,41.85
2022-12-08T18:05:11.730Z,42.66
2022-12-08T18:07:42.211Z,43.53
2022-12-08T18:10:12.362Z,43.56
2022-12-08T18:12:42.851Z,43.66
2022-12-08T18:15:16.856Z,44.36
2022-12-08T18:17:47.957Z,44.06
2022-12-08T18:20:18.155Z,44.74
2022-12-08T18:22:48.577Z,43.96
2022-12-08T18:25:18.422Z,44.95
2022-12-08T18:27:48.912Z,45.12
2022-12-08T18:30:20.491Z,44.82
2022-12-08T18:32:55.728Z,42.85
2022-12-08T18:35:28.130Z,41.75
2022-12-08T18:38:02.543Z,41.76
2022-12-08T18:40:32.835Z,42.02
2022-12-08T18:43:03.212Z,42.95
2022-12-08T18:45:33.676Z,42.56
2022-12-08T18:48:04.705Z,42.06
2022-12-08T18:50:34.661Z,41.55
2022-12-08T18:53:04.410Z,41.58
2022-12-08T18:55:34.938Z,40.72
2022-12-08T18:58:04.980Z,39.53
2022-12-08T19:00:35.611Z,39.78
2022-12-08T19:03:05.690Z,39.52
2022-12-08T19:05:36.154Z,39.56
2022-12-08T19:08:06.344Z,39.02
2022-12-08T19:10:39.480Z,38.44
2022-12-08T19:13:12.475Z,38.04
2022-12-08T19:15:42.972Z,37.86
2022-12-08T19:18:13.017Z,37.80
2022-12-08T19:20:43.494Z,37.91
2022-12-08T19:23:16.938Z,38.06
2022-12-08T19:25:47.329Z,38.18
2022-12-08T19:28:17.340Z,38.24
2022-12-08T19:30:47.800Z,37.78
2022-12-08T19:33:17.919Z,37.47
2022-12-08T19:35:52.638Z,37.09
2022-12-08T19:38:22.987Z,36.66
2022-12-08T19:41:11.323Z,36.64
2022-12-08T19:43:59.642Z,36.32
2022-12-08T19:46:30.618Z,36.30
2022-12-08T19:49:02.617Z,36.76
2022-12-08T19:51:32.524Z,36.71
2022-12-08T19:54:03.330Z,36.76
2022-12-08T19:56:33.332Z,35.98
2022-12-08T19:59:03.918Z,35.63
2022-12-08T20:01:34.011Z,35.65
2022-12-08T20:04:04.428Z,35.71
2022-12-08T20:06:34.575Z,35.57
2022-12-08T20:09:05.057Z,35.49
2022-12-08T20:11:35.125Z,35.33
2022-12-08T20:14:05.596Z,35.36
2022-12-08T20:16:37.849Z,35.46
2022-12-08T20:19:08.412Z,35.21
2022-12-08T20:21:38.394Z,35.25
2022-12-08T20:24:08.971Z,34.98
2022-12-08T20:26:38.993Z,34.72
2022-12-08T20:29:09.709Z,34.54
2022-12-08T20:31:40.153Z,34.40
2022-12-08T20:34:20.816Z,34.21
2022-12-08T20:36:51.016Z,33.85
2022-12-08T20:39:21.645Z,33.46
2022-12-08T20:41:53.224Z,33.48
2022-12-08T20:44:23.952Z,33.17
2022-12-08T20:46:54.267Z,33.30
2022-12-08T20:49:44.222Z,33.32
2022-12-08T20:52:14.855Z,33.39
2022-12-08T20:54:46.140Z,33.36
2022-12-08T20:57:17.437Z,33.38
2022-12-08T20:59:48.110Z,33.21
2022-12-08T21:02:18.576Z,33.43
2022-12-08T21:04:49.298Z,34.06
2022-12-08T21:07:19.493Z,33.61
2022-12-08T21:09:50.521Z,33.37
2022-12-08T21:12:22.551Z,33.08
2022-12-08T21:14:53.418Z,32.87
2022-12-08T21:17:23.779Z,32.61
2022-12-08T21:19:54.874Z,32.46
2022-12-08T21:22:25.103Z,32.34
2022-12-08T21:24:55.763Z,32.25
2022-12-08T21:27:26.033Z,32.18
2022-12-08T21:29:56.861Z,31.93
2022-12-08T21:32:30.358Z,31.98
2022-12-08T21:35:01.909Z,32.04
2022-12-08T21:37:32.015Z,32.07
2022-12-08T21:40:06.526Z,32.23
2022-12-08T21:42:46.248Z,31.97
2022-12-08T21:45:19.496Z,31.74
2022-12-08T21:47:51.611Z,31.78
2022-12-08T21:50:22.473Z,31.49
2022-12-08T21:52:52.617Z,31.27
2022-12-08T21:55:24.757Z,31.37
2022-12-08T21:57:57.217Z,31.10
2022-12-08T22:00:27.514Z,30.92
2022-12-08T22:02:58.891Z,30.92
2022-12-08T22:05:29.233Z,31.04
2022-12-08T22:08:00.223Z,30.70
2022-12-08T22:10:30.577Z,30.52
2022-12-08T22:13:01.132Z,30.47
2022-12-08T22:15:31.379Z,30.56
2022-12-08T22:18:02.101Z,30.38
2022-12-08T22:20:32.455Z,30.56
2022-12-08T22:23:03.095Z,30.66
2022-12-08T22:25:35.756Z,30.59
2022-12-08T22:28:06.452Z,30.55
2022-12-08T22:30:39.251Z,30.12
2022-12-08T22:33:10.154Z,30.17
2022-12-08T22:35:40.196Z,29.97
2022-12-08T22:38:13.195Z,29.85
2022-12-08T22:40:45.989Z,29.47
2022-12-08T22:43:16.616Z,29.28
2022-12-08T22:45:46.890Z,29.16
2022-12-08T22:48:18.187Z,29.08
2022-12-08T22:50:48.214Z,28.96
2022-12-08T22:53:19.025Z,29.17
2022-12-08T22:55:49.294Z,28.87
2022-12-08T22:58:21.281Z,28.64
2022-12-08T23:00:51.663Z,28.57
2022-12-08T23:03:22.425Z,28.50
2022-12-08T23:05:53.520Z,28.55
2022-12-08T23:08:24.861Z,28.35
2022-12-08T23:10:55.949Z,28.29
2022-12-08T23:13:26.569Z,28.45
2022-12-08T23:15:56.802Z,28.23
2022-12-08T23:18:27.589Z,28.33
2022-12-08T23:20:57.765Z,28.29
2022-12-08T23:23:28.632Z,28.25
2022-12-08T23:25:58.831Z,28.02
2022-12-08T23:28:29.826Z,28.12
2022-12-08T23:31:00.564Z,28.26
2022-12-08T23:33:31.386Z,28.22
2022-12-08T23:36:02.574Z,28.25
2022-12-08T23:38:32.638Z,28.01
2022-12-08T23:41:07.795Z,28.02
2022-12-08T23:43:38.760Z,27.90
2022-12-08T23:46:08.782Z,27.89
2022-12-08T23:48:39.691Z,27.90
2022-12-08T23:51:10.181Z,27.69
2022-12-08T23:53:41.120Z,27.61
2022-12-08T23:56:15.625Z,27.70
2022-12-08T23:58:47.477Z,27.58
